Norfolk, VA (23517)

11:09 PM EDT on March 31, 2015 (GMT -0400)
Historic Ghent Square | | Change Station
CLOSE
Current Station
Personal Weather Station
Location: Norfolk, VA
Elevation: 8 ft
Nearby Weather Stations

Elev 8 ft 36.86 °N, 76.29 °W | Updated 7 seconds ago

Overcast
Overcast
59.0 °F
Feels Like 59.0 °F
N
8.0
Wind Variable Wind from North
Gusts 24.0 mph

Today
High -- | Low -- °F
--% Chance of Precip.
Yesterday
High -- | Low -- °F
Precip. -- in
6:52 AM 7:26 PM
Waxing Gibbous, 90% visible
Pressure 29.79 in
Visibility 10.0 miles
Clouds Few 7000 ft
Overcast 9000 ft
Dew Point 43 °F
Humidity 55%
Rainfall 0.00 in
Snow Depth Not available.
UV 0 out of 12
Pollen 9.50 out of 12
Air Quality Not available.
Flu Activity Not available.
METAR KNGU 010259Z 01027G34KT 10SM FEW070 OVC090 15/06 A2979 RMK AO2 PK WND 01034/0259 WSHFT 0244 RAB05E15B32E45 SLP086 P0000 60000 T01500061 53045

More Conditions Fewer Conditions

Pressure 29.79 in
Visibility 10.0 miles
Clouds Few 7000 ft
Overcast 9000 ft
Dew Point 43 °F
Humidity 55%
Rainfall 0.00 in
Snow Depth Not available.
UV 0 out of 12
Pollen 9.50 out of 12
Air Quality Not available.
Flu Activity Not available.
METAR KNGU 010259Z 01027G34KT 10SM FEW070 OVC090 15/06 A2979 RMK AO2 PK WND 01034/0259 WSHFT 0244 RAB05E15B32E45 SLP086 P0000 60000 T01500061 53045

More Conditions Fewer Conditions

10-Day Weather Forecast

Almanac

Astronomy

Mar. 31, 2015 Rise Set
Actual Time
Civil Twilight
Nautical Twilight
Astronomical Twilight
Moon
Length of Visible Light
Length of Day
Tomorrow will be .
, % of the Moon is Illuminated

Today's Extremes

State Highs State Lows

Community

WunderPhotos

Upload Photos

1,809,888 photos uploaded!

WunderBlogs® & News

Nearby

Air Quality

  Air Quality AQ Index Pollutant
Not available.

Snow Depth

Station Depth Elevation

Earthquake Activity

City Distance Mag. Time & Date
Minimum magnitude displayed is 2.5.

Coastal Water Temperatures

Place Temperature

Stations

Nearby Weather Stations

Station Location Temp. Windchill Dew Point Humidity Wind Precip. Elev Updated Type